sensor_id;sensor_type;location;lat;lon;timestamp;pressure;altitude;pressure_sealevel;temperature;humidity
64610;BME280;51019;46.090;6.350;2024-01-16T00:00:42;95908.63;;;3.17;100.00
64610;BME280;51019;46.090;6.350;2024-01-16T00:03:09;95978.66;;;3.86;100.00
64610;BME280;51019;46.090;6.350;2024-01-16T00:05:37;95987.16;;;3.88;100.00
64610;BME280;51019;46.090;6.350;2024-01-16T00:08:07;95979.28;;;4.23;100.00
64610;BME280;51019;46.090;6.350;2024-01-16T00:10:34;95976.09;;;4.19;100.00
64610;BME280;51019;46.090;6.350;2024-01-16T00:13:02;95965.38;;;4.13;100.00
64610;BME280;51019;46.090;6.350;2024-01-16T00:15:30;95965.66;;;3.63;100.00
64610;BME280;51019;46.090;6.350;2024-01-16T00:17:58;95972.31;;;3.90;100.00
64610;BME280;51019;46.090;6.350;2024-01-16T00:20:26;95968.53;;;3.83;100.00
64610;BME280;51019;46.090;6.350;2024-01-16T00:22:52;95966.28;;;3.89;100.00
64610;BME280;51019;46.090;6.350;2024-01-16T00:25:21;95974.41;;;3.85;100.00
64610;BME280;51019;46.090;6.350;2024-01-16T00:27:48;95980.09;;;3.90;100.00
64610;BME280;51019;46.090;6.350;2024-01-16T00:30:15;95983.84;;;3.86;100.00
64610;BME280;51019;46.090;6.350;2024-01-16T00:32:42;95977.00;;;3.85;100.00
64610;BME280;51019;46.090;6.350;2024-01-16T00:35:09;95967.22;;;3.77;100.00
64610;BME280;51019;46.090;6.350;2024-01-16T00:37:37;95983.53;;;4.01;100.00
64610;BME280;51019;46.090;6.350;2024-01-16T00:40:06;95978.22;;;3.92;100.00
64610;BME280;51019;46.090;6.350;2024-01-16T00:42:36;95973.38;;;3.98;100.00
64610;BME280;51019;46.090;6.350;2024-01-16T00:45:04;95978.53;;;3.87;100.00
64610;BME280;51019;46.090;6.350;2024-01-16T00:47:31;95982.47;;;4.04;100.00
64610;BME280;51019;46.090;6.350;2024-01-16T00:49:58;95984.69;;;3.97;100.00
64610;BME280;51019;46.090;6.350;2024-01-16T00:52:25;95968.78;;;3.91;100.00
64610;BME280;51019;46.090;6.350;2024-01-16T00:54:52;95978.41;;;3.78;100.00
64610;BME280;51019;46.090;6.350;2024-01-16T00:57:19;95923.84;;;3.68;100.00
64610;BME280;51019;46.090;6.350;2024-01-16T00:59:48;95899.06;;;3.42;100.00
64610;BME280;51019;46.090;6.350;2024-01-16T01:02:15;95948.94;;;3.68;100.00
64610;BME280;51019;46.090;6.350;2024-01-16T01:04:42;95914.88;;;3.50;100.00
64610;BME280;51019;46.090;6.350;2024-01-16T01:07:12;95974.03;;;3.67;100.00
64610;BME280;51019;46.090;6.350;2024-01-16T01:09:40;95973.19;;;3.67;100.00
64610;BME280;51019;46.090;6.350;2024-01-16T01:12:07;95974.94;;;3.55;100.00
64610;BME280;51019;46.090;6.350;2024-01-16T01:14:34;95964.84;;;3.74;100.00
64610;BME280;51019;46.090;6.350;2024-01-16T01:17:05;95970.75;;;3.76;100.00
64610;BME280;51019;46.090;6.350;2024-01-16T01:19:34;95975.41;;;3.95;100.00
64610;BME280;51019;46.090;6.350;2024-01-16T01:22:01;95972.41;;;3.88;100.00
64610;BME280;51019;46.090;6.350;2024-01-16T01:24:28;95969.81;;;3.88;100.00
64610;BME280;51019;46.090;6.350;2024-01-16T01:26:55;95972.22;;;3.56;100.00
64610;BME280;51019;46.090;6.350;2024-01-16T01:29:23;95969.84;;;3.53;100.00
64610;BME280;51019;46.090;6.350;2024-01-16T01:31:50;95913.13;;;2.91;100.00
64610;BME280;51019;46.090;6.350;2024-01-16T01:34:19;95975.38;;;3.14;100.00
64610;BME280;51019;46.090;6.350;2024-01-16T01:36:46;95977.28;;;3.23;100.00
64610;BME280;51019;46.090;6.350;2024-01-16T01:39:13;95988.41;;;3.36;100.00
64610;BME280;51019;46.090;6.350;2024-01-16T01:41:41;95991.78;;;3.49;100.00
64610;BME280;51019;46.090;6.350;2024-01-16T01:44:08;95989.81;;;3.40;100.00
64610;BME280;51019;46.090;6.350;2024-01-16T01:46:41;95991.72;;;3.38;100.00
64610;BME280;51019;46.090;6.350;2024-01-16T01:49:09;95987.38;;;3.15;100.00
64610;BME280;51019;46.090;6.350;2024-01-16T01:51:37;95987.88;;;3.55;100.00
64610;BME280;51019;46.090;6.350;2024-01-16T01:54:04;95989.66;;;3.54;100.00
64610;BME280;51019;46.090;6.350;2024-01-16T01:56:31;95924.97;;;3.42;100.00
64610;BME280;51019;46.090;6.350;2024-01-16T01:58:59;95993.09;;;3.66;100.00
64610;BME280;51019;46.090;6.350;2024-01-16T02:01:28;96001.00;;;3.64;100.00
64610;BME280;51019;46.090;6.350;2024-01-16T02:03:56;95988.81;;;3.89;100.00
64610;BME280;51019;46.090;6.350;2024-01-16T02:06:24;95995.13;;;3.74;100.00
64610;BME280;51019;46.090;6.350;2024-01-16T02:08:53;95987.16;;;3.53;100.00
64610;BME280;51019;46.090;6.350;2024-01-16T02:11:21;95997.13;;;3.35;100.00
64610;BME280;51019;46.090;6.350;2024-01-16T02:13:48;95974.09;;;3.19;100.00
64610;BME280;51019;46.090;6.350;2024-01-16T02:16:19;95993.03;;;3.44;100.00
64610;BME280;51019;46.090;6.350;2024-01-16T02:18:46;95982.28;;;3.61;100.00
64610;BME280;51019;46.090;6.350;2024-01-16T02:21:17;95981.75;;;3.56;100.00
64610;BME280;51019;46.090;6.350;2024-01-16T02:23:47;95983.78;;;3.28;100.00
64610;BME280;51019;46.090;6.350;2024-01-16T02:26:14;95983.03;;;3.50;100.00
64610;BME280;51019;46.090;6.350;2024-01-16T02:28:42;95989.63;;;3.43;100.00
64610;BME280;51019;46.090;6.350;2024-01-16T02:31:09;95990.47;;;3.55;100.00
64610;BME280;51019;46.090;6.350;2024-01-16T02:33:36;95990.19;;;3.36;100.00
64610;BME280;51019;46.090;6.350;2024-01-16T02:36:03;95978.56;;;2.57;100.00
64610;BME280;51019;46.090;6.350;2024-01-16T02:38:30;95920.72;;;2.58;100.00
64610;BME280;51019;46.090;6.350;2024-01-16T02:40:59;95997.16;;;3.46;100.00
64610;BME280;51019;46.090;6.350;2024-01-16T02:43:26;95993.75;;;3.46;100.00
64610;BME280;51019;46.090;6.350;2024-01-16T02:45:53;95941.25;;;3.20;100.00
64610;BME280;51019;46.090;6.350;2024-01-16T02:48:20;95999.41;;;3.16;100.00
64610;BME280;51019;46.090;6.350;2024-01-16T02:50:48;95963.31;;;3.02;100.00
64610;BME280;51019;46.090;6.350;2024-01-16T02:53:15;95979.81;;;3.36;100.00
64610;BME280;51019;46.090;6.350;2024-01-16T02:55:42;95995.72;;;3.77;100.00
64610;BME280;51019;46.090;6.350;2024-01-16T02:58:11;95989.06;;;3.62;100.00
64610;BME280;51019;46.090;6.350;2024-01-16T03:00:38;95915.44;;;2.83;100.00
64610;BME280;51019;46.090;6.350;2024-01-16T03:03:05;95922.47;;;3.05;100.00
64610;BME280;51019;46.090;6.350;2024-01-16T03:05:33;95997.88;;;3.48;100.00
64610;BME280;51019;46.090;6.350;2024-01-16T03:08:00;95967.16;;;3.20;100.00
64610;BME280;51019;46.090;6.350;2024-01-16T03:10:27;95985.00;;;3.12;100.00
64610;BME280;51019;46.090;6.350;2024-01-16T03:12:54;95978.53;;;3.17;100.00
64610;BME280;51019;46.090;6.350;2024-01-16T03:15:24;95974.53;;;3.13;100.00
64610;BME280;51019;46.090;6.350;2024-01-16T03:17:51;95978.13;;;3.23;100.00
64610;BME280;51019;46.090;6.350;2024-01-16T03:20:18;95975.41;;;3.25;100.00
64610;BME280;51019;46.090;6.350;2024-01-16T03:22:45;95972.16;;;3.34;100.00
64610;BME280;51019;46.090;6.350;2024-01-16T03:25:12;95969.16;;;2.92;100.00
64610;BME280;51019;46.090;6.350;2024-01-16T03:27:39;95926.28;;;2.65;100.00
64610;BME280;51019;46.090;6.350;2024-01-16T03:30:07;95985.59;;;2.55;100.00
64610;BME280;51019;46.090;6.350;2024-01-16T03:32:37;95929.03;;;2.38;100.00
64610;BME280;51019;46.090;6.350;2024-01-16T03:35:05;95976.56;;;2.97;100.00
64610;BME280;51019;46.090;6.350;2024-01-16T03:37:32;95986.25;;;2.82;100.00
64610;BME280;51019;46.090;6.350;2024-01-16T03:39:59;95964.78;;;2.69;100.00
64610;BME280;51019;46.090;6.350;2024-01-16T03:42:26;95985.00;;;2.88;100.00
64610;BME280;51019;46.090;6.350;2024-01-16T03:44:53;95974.97;;;3.07;100.00
64610;BME280;51019;46.090;6.350;2024-01-16T03:47:20;95971.41;;;2.61;100.00
64610;BME280;51019;46.090;6.350;2024-01-16T03:49:50;95969.72;;;2.72;100.00
64610;BME280;51019;46.090;6.350;2024-01-16T03:52:18;95941.53;;;2.57;100.00
64610;BME280;51019;46.090;6.350;2024-01-16T03:54:45;95970.03;;;2.80;100.00
64610;BME280;51019;46.090;6.350;2024-01-16T03:57:12;95957.03;;;2.93;100.00
64610;BME280;51019;46.090;6.350;2024-01-16T03:59:39;95947.63;;;2.92;100.00
64610;BME280;51019;46.090;6.350;2024-01-16T04:02:06;95940.06;;;2.89;100.00
64610;BME280;51019;46.090;6.350;2024-01-16T04:04:33;95874.22;;;2.45;100.00
64610;BME280;51019;46.090;6.350;2024-01-16T04:07:02;95869.06;;;2.33;100.00
64610;BME280;51019;46.090;6.350;2024-01-16T04:09:29;95952.44;;;2.73;100.00
64610;BME280;51019;46.090;6.350;2024-01-16T04:11:56;95960.16;;;2.85;100.00
64610;BME280;51019;46.090;6.350;2024-01-16T04:14:23;95953.16;;;2.99;100.00
64610;BME280;51019;46.090;6.350;2024-01-16T04:16:50;95950.66;;;2.73;100.00
64610;BME280;51019;46.090;6.350;2024-01-16T04:19:17;95923.09;;;2.48;100.00
64610;BME280;51019;46.090;6.350;2024-01-16T04:21:44;95941.63;;;2.55;100.00
64610;BME280;51019;46.090;6.350;2024-01-16T04:24:13;95940.56;;;2.70;100.00
64610;BME280;51019;46.090;6.350;2024-01-16T04:26:40;95939.22;;;2.65;100.00
64610;BME280;51019;46.090;6.350;2024-01-16T04:29:07;95857.06;;;1.95;100.00
64610;BME280;51019;46.090;6.350;2024-01-16T04:31:39;95918.09;;;2.34;100.00
64610;BME280;51019;46.090;6.350;2024-01-16T04:34:07;95926.44;;;2.38;100.00
64610;BME280;51019;46.090;6.350;2024-01-16T04:36:34;95945.66;;;2.59;100.00
64610;BME280;51019;46.090;6.350;2024-01-16T04:39:01;95937.69;;;2.49;100.00
64610;BME280;51019;46.090;6.350;2024-01-16T04:41:30;95899.41;;;2.54;100.00
64610;BME280;51019;46.090;6.350;2024-01-16T04:43:57;95925.00;;;2.46;100.00
64610;BME280;51019;46.090;6.350;2024-01-16T04:46:24;95934.06;;;2.52;100.00
64610;BME280;51019;46.090;6.350;2024-01-16T04:48:51;95935.88;;;2.26;100.00
64610;BME280;51019;46.090;6.350;2024-01-16T04:51:19;95872.09;;;1.77;100.00
64610;BME280;51019;46.090;6.350;2024-01-16T04:53:46;95929.59;;;2.30;100.00
64610;BME280;51019;46.090;6.350;2024-01-16T04:56:13;95903.16;;;2.14;100.00
64610;BME280;51019;46.090;6.350;2024-01-16T04:58:41;95928.78;;;2.17;100.00
64610;BME280;51019;46.090;6.350;2024-01-16T05:01:09;95835.72;;;1.68;100.00
64610;BME280;51019;46.090;6.350;2024-01-16T05:03:36;95922.28;;;2.24;100.00
64610;BME280;51019;46.090;6.350;2024-01-16T05:06:03;95822.28;;;1.63;100.00
64610;BME280;51019;46.090;6.350;2024-01-16T05:08:30;95837.50;;;1.42;100.00
64610;BME280;51019;46.090;6.350;2024-01-16T05:10:58;95898.75;;;1.78;100.00
64610;BME280;51019;46.090;6.350;2024-01-16T05:13:25;95809.91;;;1.04;100.00
64610;BME280;51019;46.090;6.350;2024-01-16T05:15:54;95875.94;;;1.47;100.00
64610;BME280;51019;46.090;6.350;2024-01-16T05:18:21;95898.63;;;1.29;100.00
64610;BME280;51019;46.090;6.350;2024-01-16T05:20:48;95899.84;;;1.11;100.00
64610;BME280;51019;46.090;6.350;2024-01-16T05:23:15;95891.69;;;1.17;100.00
64610;BME280;51019;46.090;6.350;2024-01-16T05:25:43;95871.84;;;1.04;100.00
64610;BME280;51019;46.090;6.350;2024-01-16T05:28:10;95874.53;;;1.03;100.00
64610;BME280;51019;46.090;6.350;2024-01-16T05:30:37;95801.16;;;0.42;100.00
64610;BME280;51019;46.090;6.350;2024-01-16T05:33:06;95818.31;;;0.68;100.00
64610;BME280;51019;46.090;6.350;2024-01-16T05:35:36;95889.63;;;1.09;100.00
64610;BME280;51019;46.090;6.350;2024-01-16T05:38:04;95882.25;;;0.90;100.00
64610;BME280;51019;46.090;6.350;2024-01-16T05:40:32;95885.97;;;0.86;100.00
64610;BME280;51019;46.090;6.350;2024-01-16T05:42:59;95895.78;;;0.94;100.00
64610;BME280;51019;46.090;6.350;2024-01-16T05:45:27;95793.78;;;0.63;100.00
64610;BME280;51019;46.090;6.350;2024-01-16T05:47:54;95886.13;;;1.48;100.00
64610;BME280;51019;46.090;6.350;2024-01-16T05:50:23;95899.56;;;1.40;100.00
64610;BME280;51019;46.090;6.350;2024-01-16T05:52:50;95896.44;;;1.10;100.00
64610;BME280;51019;46.090;6.350;2024-01-16T05:55:17;95813.81;;;0.32;100.00
64610;BME280;51019;46.090;6.350;2024-01-16T05:57:46;95903.56;;;0.80;100.00
64610;BME280;51019;46.090;6.350;2024-01-16T06:00:14;95903.50;;;0.54;100.00
64610;BME280;51019;46.090;6.350;2024-01-16T06:02:43;95894.16;;;0.66;100.00
64610;BME280;51019;46.090;6.350;2024-01-16T06:05:12;95898.75;;;0.61;100.00
64610;BME280;51019;46.090;6.350;2024-01-16T06:07:40;95906.41;;;0.62;100.00
64610;BME280;51019;46.090;6.350;2024-01-16T06:10:08;95819.50;;;0.11;100.00
64610;BME280;51019;46.090;6.350;2024-01-16T06:12:35;95893.69;;;0.59;100.00
64610;BME280;51019;46.090;6.350;2024-01-16T06:15:03;95884.06;;;0.76;100.00
64610;BME280;51019;46.090;6.350;2024-01-16T06:17:30;95895.63;;;0.83;100.00
64610;BME280;51019;46.090;6.350;2024-01-16T06:19:57;95845.41;;;0.22;100.00
64610;BME280;51019;46.090;6.350;2024-01-16T06:22:24;95884.00;;;0.36;100.00
64610;BME280;51019;46.090;6.350;2024-01-16T06:24:53;95896.97;;;0.76;100.00
64610;BME280;51019;46.090;6.350;2024-01-16T06:27:20;95899.50;;;0.63;100.00
64610;BME280;51019;46.090;6.350;2024-01-16T06:29:48;95903.25;;;0.45;100.00
64610;BME280;51019;46.090;6.350;2024-01-16T06:32:16;95898.75;;;0.34;100.00
64610;BME280;51019;46.090;6.350;2024-01-16T06:34:43;95900.78;;;0.29;100.00
64610;BME280;51019;46.090;6.350;2024-01-16T06:37:10;95898.22;;;0.29;100.00
64610;BME280;51019;46.090;6.350;2024-01-16T06:39:37;95890.09;;;0.35;100.00
64610;BME280;51019;46.090;6.350;2024-01-16T06:42:07;95902.44;;;0.57;100.00
64610;BME280;51019;46.090;6.350;2024-01-16T06:44:34;95887.16;;;0.41;100.00
64610;BME280;51019;46.090;6.350;2024-01-16T06:47:02;95905.34;;;0.52;100.00
64610;BME280;51019;46.090;6.350;2024-01-16T06:49:29;95853.66;;;0.00;100.00
64610;BME280;51019;46.090;6.350;2024-01-16T06:51:56;95795.03;;;-0.52;100.00
64610;BME280;51019;46.090;6.350;2024-01-16T06:54:24;95912.25;;;-0.04;100.00
64610;BME280;51019;46.090;6.350;2024-01-16T06:56:51;95905.44;;;0.10;100.00
64610;BME280;51019;46.090;6.350;2024-01-16T06:59:21;95906.06;;;0.13;100.00
64610;BME280;51019;46.090;6.350;2024-01-16T07:01:51;95912.50;;;0.20;100.00
64610;BME280;51019;46.090;6.350;2024-01-16T07:04:20;95900.06;;;0.13;100.00
64610;BME280;51019;46.090;6.350;2024-01-16T07:06:47;95899.22;;;0.26;100.00
64610;BME280;51019;46.090;6.350;2024-01-16T07:09:16;95897.72;;;0.10;100.00
64610;BME280;51019;46.090;6.350;2024-01-16T07:11:45;95907.63;;;0.16;100.00
64610;BME280;51019;46.090;6.350;2024-01-16T07:14:13;95906.13;;;0.26;100.00
64610;BME280;51019;46.090;6.350;2024-01-16T07:16:42;95911.00;;;0.30;100.00
64610;BME280;51019;46.090;6.350;2024-01-16T07:19:10;95861.13;;;-0.38;100.00
64610;BME280;51019;46.090;6.350;2024-01-16T07:21:37;95915.66;;;-0.31;100.00
64610;BME280;51019;46.090;6.350;2024-01-16T07:24:05;95919.44;;;-0.23;100.00
64610;BME280;51019;46.090;6.350;2024-01-16T07:26:34;95927.31;;;0.17;100.00
64610;BME280;51019;46.090;6.350;2024-01-16T07:29:01;95931.38;;;0.21;100.00
64610;BME280;51019;46.090;6.350;2024-01-16T07:31:30;95930.81;;;0.30;100.00
64610;BME280;51019;46.090;6.350;2024-01-16T07:34:01;95858.34;;;-0.07;100.00
64610;BME280;51019;46.090;6.350;2024-01-16T07:36:30;95916.78;;;0.34;100.00
64610;BME280;51019;46.090;6.350;2024-01-16T07:38:57;95923.81;;;0.18;100.00
64610;BME280;51019;46.090;6.350;2024-01-16T07:41:26;95926.22;;;0.21;100.00
64610;BME280;51019;46.090;6.350;2024-01-16T07:43:54;95917.53;;;0.36;100.00
64610;BME280;51019;46.090;6.350;2024-01-16T07:46:23;95897.00;;;0.34;100.00
64610;BME280;51019;46.090;6.350;2024-01-16T07:48:50;95917.25;;;0.41;100.00
64610;BME280;51019;46.090;6.350;2024-01-16T07:51:20;95911.25;;;0.40;100.00
64610;BME280;51019;46.090;6.350;2024-01-16T07:53:47;95856.75;;;0.05;100.00
64610;BME280;51019;46.090;6.350;2024-01-16T07:56:17;95918.22;;;0.52;100.00
64610;BME280;51019;46.090;6.350;2024-01-16T07:58:45;95927.16;;;0.47;100.00
64610;BME280;51019;46.090;6.350;2024-01-16T08:01:13;95927.59;;;0.26;100.00
64610;BME280;51019;46.090;6.350;2024-01-16T08:03:42;95926.41;;;0.18;100.00
64610;BME280;51019;46.090;6.350;2024-01-16T08:06:10;95927.38;;;0.44;100.00
64610;BME280;51019;46.090;6.350;2024-01-16T08:08:40;95935.94;;;0.44;100.00
64610;BME280;51019;46.090;6.350;2024-01-16T08:11:07;95935.38;;;0.53;100.00
64610;BME280;51019;46.090;6.350;2024-01-16T08:13:36;95939.06;;;1.16;100.00
64610;BME280;51019;46.090;6.350;2024-01-16T08:16:05;95869.94;;;0.42;100.00
64610;BME280;51019;46.090;6.350;2024-01-16T08:18:33;95943.84;;;0.55;100.00
64610;BME280;51019;46.090;6.350;2024-01-16T08:21:00;95939.28;;;0.18;100.00
64610;BME280;51019;46.090;6.350;2024-01-16T08:23:27;95943.78;;;0.28;100.00
64610;BME280;51019;46.090;6.350;2024-01-16T08:25:57;95945.69;;;0.39;100.00
64610;BME280;51019;46.090;6.350;2024-01-16T08:28:24;95964.31;;;0.44;100.00
64610;BME280;51019;46.090;6.350;2024-01-16T08:30:52;95965.22;;;0.29;100.00
64610;BME280;51019;46.090;6.350;2024-01-16T08:33:19;95960.38;;;0.65;100.00
64610;BME280;51019;46.090;6.350;2024-01-16T08:35:47;95969.72;;;1.07;100.00
64610;BME280;51019;46.090;6.350;2024-01-16T08:38:15;95955.66;;;0.99;100.00
64610;BME280;51019;46.090;6.350;2024-01-16T08:40:43;95973.78;;;1.24;100.00
64610;BME280;51019;46.090;6.350;2024-01-16T08:43:12;95954.66;;;1.01;100.00
64610;BME280;51019;46.090;6.350;2024-01-16T08:45:39;95971.63;;;0.91;100.00
64610;BME280;51019;46.090;6.350;2024-01-16T08:48:06;95965.63;;;0.91;100.00
64610;BME280;51019;46.090;6.350;2024-01-16T08:50:35;95964.50;;;0.95;100.00
64610;BME280;51019;46.090;6.350;2024-01-16T08:53:02;95965.63;;;1.18;100.00
64610;BME280;51019;46.090;6.350;2024-01-16T08:55:30;95899.31;;;2.07;100.00
64610;BME280;51019;46.090;6.350;2024-01-16T08:57:57;95948.13;;;2.11;100.00
64610;BME280;51019;46.090;6.350;2024-01-16T09:00:26;95936.84;;;1.49;100.00
64610;BME280;51019;46.090;6.350;2024-01-16T09:02:53;95952.38;;;2.12;100.00
64610;BME280;51019;46.090;6.350;2024-01-16T09:05:21;95941.41;;;3.76;100.00
64610;BME280;51019;46.090;6.350;2024-01-16T09:07:50;95932.69;;;4.55;100.00
64610;BME280;51019;46.090;6.350;2024-01-16T09:10:19;95934.97;;;5.55;100.00
64610;BME280;51019;46.090;6.350;2024-01-16T09:12:47;95930.53;;;6.39;100.00
64610;BME280;51019;46.090;6.350;2024-01-16T09:15:16;95941.81;;;7.37;95.49
64610;BME280;51019;46.090;6.350;2024-01-16T09:17:47;95949.06;;;7.34;94.99
64610;BME280;51019;46.090;6.350;2024-01-16T09:20:14;95947.16;;;7.64;91.18
64610;BME280;51019;46.090;6.350;2024-01-16T09:22:41;95894.25;;;9.72;74.17
64610;BME280;51019;46.090;6.350;2024-01-16T09:25:09;95948.31;;;9.28;77.22
64610;BME280;51019;46.090;6.350;2024-01-16T09:27:36;95943.50;;;8.23;81.76
64610;BME280;51019;46.090;6.350;2024-01-16T09:30:05;95953.59;;;7.70;86.79
64610;BME280;51019;46.090;6.350;2024-01-16T09:32:32;95957.63;;;10.01;73.33
64610;BME280;51019;46.090;6.350;2024-01-16T09:35:03;95949.91;;;9.38;74.77
64610;BME280;51019;46.090;6.350;2024-01-16T09:37:33;95964.03;;;9.45;75.98
64610;BME280;51019;46.090;6.350;2024-01-16T09:40:01;95957.66;;;9.83;70.71
64610;BME280;51019;46.090;6.350;2024-01-16T09:42:30;95963.31;;;10.74;67.45
64610;BME280;51019;46.090;6.350;2024-01-16T09:45:00;95944.75;;;10.60;64.07
64610;BME280;51019;46.090;6.350;2024-01-16T09:47:29;95950.78;;;9.29;72.53
64610;BME280;51019;46.090;6.350;2024-01-16T09:49:57;95975.78;;;8.32;78.98
64610;BME280;51019;46.090;6.350;2024-01-16T09:52:29;95972.81;;;7.31;86.19
64610;BME280;51019;46.090;6.350;2024-01-16T09:54:56;95972.13;;;7.09;85.49
64610;BME280;51019;46.090;6.350;2024-01-16T09:57:25;95966.47;;;6.24;94.36
64610;BME280;51019;46.090;6.350;2024-01-16T09:59:53;95966.50;;;6.03;100.00
64610;BME280;51019;46.090;6.350;2024-01-16T10:02:22;95981.22;;;6.75;94.02
64610;BME280;51019;46.090;6.350;2024-01-16T10:04:51;95976.47;;;8.34;87.74
64610;BME280;51019;46.090;6.350;2024-01-16T10:07:20;95966.72;;;7.01;90.31
64610;BME280;51019;46.090;6.350;2024-01-16T10:09:56;95967.88;;;7.18;93.02
64610;BME280;51019;46.090;6.350;2024-01-16T10:12:25;95961.00;;;7.46;91.30
64610;BME280;51019;46.090;6.350;2024-01-16T10:14:54;95961.00;;;7.46;84.36
64610;BME280;51019;46.090;6.350;2024-01-16T10:17:35;95946.22;;;6.28;86.22
64610;BME280;51019;46.090;6.350;2024-01-16T10:20:03;95959.34;;;7.06;84.49
64610;BME280;51019;46.090;6.350;2024-01-16T10:22:31;95961.56;;;7.40;78.71
64610;BME280;51019;46.090;6.350;2024-01-16T10:25:07;95953.81;;;6.90;81.65
64610;BME280;51019;46.090;6.350;2024-01-16T10:27:35;95956.59;;;6.98;83.87
64610;BME280;51019;46.090;6.350;2024-01-16T10:30:06;95938.91;;;7.11;81.64
64610;BME280;51019;46.090;6.350;2024-01-16T10:32:34;95923.47;;;8.05;77.49
64610;BME280;51019;46.090;6.350;2024-01-16T10:35:07;95926.63;;;8.08;75.62
64610;BME280;51019;46.090;6.350;2024-01-16T10:37:42;95920.22;;;8.30;74.25
64610;BME280;51019;46.090;6.350;2024-01-16T10:40:15;95915.53;;;7.96;76.14
64610;BME280;51019;46.090;6.350;2024-01-16T10:42:44;95913.25;;;7.74;80.53
64610;BME280;51019;46.090;6.350;2024-01-16T10:45:19;95902.84;;;8.48;79.43
64610;BME280;51019;46.090;6.350;2024-01-16T10:47:48;95876.22;;;7.22;83.43
64610;BME280;51019;46.090;6.350;2024-01-16T10:50:15;95898.19;;;7.29;87.05
64610;BME280;51019;46.090;6.350;2024-01-16T10:52:47;95887.75;;;7.49;83.59
64610;BME280;51019;46.090;6.350;2024-01-16T10:55:21;95843.53;;;6.41;85.46
64610;BME280;51019;46.090;6.350;2024-01-16T10:57:49;95848.13;;;6.18;89.93
64610;BME280;51019;46.090;6.350;2024-01-16T11:00:19;95892.88;;;6.43;92.28
64610;BME280;51019;46.090;6.350;2024-01-16T11:02:50;95842.56;;;5.41;91.28
64610;BME280;51019;46.090;6.350;2024-01-16T11:05:20;95888.31;;;6.35;90.73
64610;BME280;51019;46.090;6.350;2024-01-16T11:07:50;95885.31;;;7.18;79.34
64610;BME280;51019;46.090;6.350;2024-01-16T11:10:20;95871.06;;;6.44;81.13
64610;BME280;51019;46.090;6.350;2024-01-16T11:12:51;95885.94;;;6.72;83.81
64610;BME280;51019;46.090;6.350;2024-01-16T11:15:20;95883.47;;;6.71;79.08
64610;BME280;51019;46.090;6.350;2024-01-16T11:17:49;95882.16;;;6.36;82.47
64610;BME280;51019;46.090;6.350;2024-01-16T11:20:16;95896.34;;;6.72;77.00
64610;BME280;51019;46.090;6.350;2024-01-16T11:22:45;95891.25;;;7.86;71.86
64610;BME280;51019;46.090;6.350;2024-01-16T11:25:14;95878.72;;;8.64;66.08
64610;BME280;51019;46.090;6.350;2024-01-16T11:27:45;95897.34;;;9.93;66.24
64610;BME280;51019;46.090;6.350;2024-01-16T11:30:29;95890.47;;;8.13;67.25
64610;BME280;51019;46.090;6.350;2024-01-16T11:32:59;95898.56;;;9.55;64.17
64610;BME280;51019;46.090;6.350;2024-01-16T11:35:31;95872.38;;;10.67;57.41
64610;BME280;51019;46.090;6.350;2024-01-16T11:38:04;95882.38;;;10.03;60.93
64610;BME280;51019;46.090;6.350;2024-01-16T11:40:35;95887.28;;;10.66;57.43
64610;BME280;51019;46.090;6.350;2024-01-16T11:43:38;95880.72;;;8.97;61.20
64610;BME280;51019;46.090;6.350;2024-01-16T11:46:06;95860.78;;;8.51;66.11
64610;BME280;51019;46.090;6.350;2024-01-16T11:48:33;95863.41;;;8.51;65.88
64610;BME280;51019;46.090;6.350;2024-01-16T11:51:00;95856.72;;;9.81;63.90
64610;BME280;51019;46.090;6.350;2024-01-16T11:53:47;95855.53;;;10.01;67.14
64610;BME280;51019;46.090;6.350;2024-01-16T11:56:42;95858.50;;;10.06;64.89
64610;BME280;51019;46.090;6.350;2024-01-16T11:59:40;95832.31;;;10.06;63.43
64610;BME280;51019;46.090;6.350;2024-01-16T12:02:17;95843.13;;;10.03;63.00
64610;BME280;51019;46.090;6.350;2024-01-16T12:04:52;95837.31;;;9.92;60.69
64610;BME280;51019;46.090;6.350;2024-01-16T12:07:22;95835.69;;;10.75;58.69
64610;BME280;51019;46.090;6.350;2024-01-16T12:09:49;95834.78;;;11.00;60.63
64610;BME280;51019;46.090;6.350;2024-01-16T12:12:16;95821.00;;;11.87;55.15
64610;BME280;51019;46.090;6.350;2024-01-16T12:14:54;95817.41;;;11.56;56.83
64610;BME280;51019;46.090;6.350;2024-01-16T12:17:21;95771.69;;;11.26;55.54
64610;BME280;51019;46.090;6.350;2024-01-16T12:19:48;95826.16;;;10.49;58.27
64610;BME280;51019;46.090;6.350;2024-01-16T12:22:17;95812.72;;;12.15;53.26
64610;BME280;51019;46.090;6.350;2024-01-16T12:24:47;95806.75;;;13.14;49.91
64610;BME280;51019;46.090;6.350;2024-01-16T12:27:14;95794.44;;;10.69;52.20
64610;BME280;51019;46.090;6.350;2024-01-16T12:29:41;95783.78;;;11.59;52.69
64610;BME280;51019;46.090;6.350;2024-01-16T12:32:11;95743.00;;;10.76;53.59
64610;BME280;51019;46.090;6.350;2024-01-16T12:34:43;95777.44;;;10.23;58.10
64610;BME280;51019;46.090;6.350;2024-01-16T12:37:12;95789.75;;;12.09;52.89
64610;BME280;51019;46.090;6.350;2024-01-16T12:39:40;95770.06;;;11.17;52.44
64610;BME280;51019;46.090;6.350;2024-01-16T12:42:07;95768.91;;;11.03;52.35
64610;BME280;51019;46.090;6.350;2024-01-16T12:44:37;95761.84;;;11.12;54.13
64610;BME280;51019;46.090;6.350;2024-01-16T12:47:04;95761.38;;;12.66;48.82
64610;BME280;51019;46.090;6.350;2024-01-16T12:49:40;95748.31;;;12.81;50.07
64610;BME280;51019;46.090;6.350;2024-01-16T12:52:15;95746.09;;;13.67;49.47
64610;BME280;51019;46.090;6.350;2024-01-16T12:54:43;95762.44;;;11.62;50.55
64610;BME280;51019;46.090;6.350;2024-01-16T12:57:16;95721.91;;;9.43;56.65
64610;BME280;51019;46.090;6.350;2024-01-16T12:59:46;95756.75;;;9.00;60.26
64610;BME280;51019;46.090;6.350;2024-01-16T13:02:28;95750.75;;;9.93;58.41
64610;BME280;51019;46.090;6.350;2024-01-16T13:04:58;95745.16;;;9.20;58.64
64610;BME280;51019;46.090;6.350;2024-01-16T13:07:25;95673.03;;;8.30;59.67
64610;BME280;51019;46.090;6.350;2024-01-16T13:10:06;95730.69;;;7.92;64.55